Time;durP1;ratioP1;P1;durP2;ratioP2;P2;SDS_P1;SDS_P2;PMS_P1;PMS_P2;Temp;Humidity;BMP_temperature;BMP_pressure;BME280_temperature;BME280_humidity;BME280_pressure;Samples;Min_cycle;Max_cycle;Signal;HPM_P1;HPM_P2
2021/10/01 00:03:10;;;;;;;1.50;0.50;;;17.80;76.60;;;;;;10451365;28;20217;-68
2021/10/01 00:08:32;;;;;;;1.47;0.70;;;17.80;76.60;;;;;;10437612;28;20577;-67
2021/10/01 00:13:54;;;;;;;2.10;0.73;;;17.80;76.60;;;;;;10409108;28;20352;-68
2021/10/01 00:19:18;;;;;;;2.03;0.73;;;17.70;76.70;;;;;;10410202;28;20201;-70
2021/10/01 00:24:41;;;;;;;1.20;0.70;;;17.70;76.70;;;;;;10415596;28;20593;-68
2021/10/01 00:30:04;;;;;;;1.07;0.60;;;17.70;76.70;;;;;;10409699;28;20292;-67
2021/10/01 00:35:27;;;;;;;1.07;0.63;;;17.70;76.70;;;;;;10410446;28;20277;-68
2021/10/01 00:40:49;;;;;;;0.90;0.60;;;17.80;76.80;;;;;;10450887;28;20219;-68
2021/10/01 00:46:11;;;;;;;0.53;0.43;;;17.70;76.70;;;;;;10417875;28;20197;-70
2021/10/01 00:51:39;;;;;;;2.40;0.70;;;17.80;76.80;;;;;;10449603;28;20688;-68
2021/10/01 00:57:01;;;;;;;2.00;0.80;;;17.80;76.80;;;;;;10435011;28;20213;-69
2021/10/01 01:02:24;;;;;;;1.20;0.60;;;17.70;76.80;;;;;;10408809;28;20221;-68
2021/10/01 01:07:55;;;;;;;1.93;0.57;;;17.70;76.80;;;;;;10408982;28;20201;-68
2021/10/01 01:13:24;;;;;;;0.77;0.30;;;17.70;76.80;;;;;;10408566;28;20213;-68
2021/10/01 01:18:49;;;;;;;1.07;0.50;;;17.70;76.80;;;;;;10414114;28;20676;-68
2021/10/01 01:24:48;;;;;;;2.00;0.70;;;17.70;76.90;;;;;;10416117;28;20743;-68
2021/10/01 01:30:15;;;;;;;1.07;0.60;;;17.70;76.80;;;;;;10449037;28;20576;-68
2021/10/01 01:35:40;;;;;;;0.50;0.40;;;17.80;76.90;;;;;;10449483;28;20196;-68
2021/10/01 01:41:04;;;;;;;1.50;0.60;;;17.70;76.90;;;;;;10453145;28;20221;-67
2021/10/01 01:46:27;;;;;;;1.17;0.67;;;17.70;77.00;;;;;;10448526;28;20197;-68
2021/10/01 01:51:51;;;;;;;1.23;0.60;;;17.70;76.90;;;;;;10415819;28;20210;-68
2021/10/01 01:57:14;;;;;;;0.77;0.43;;;17.70;76.90;;;;;;10417785;28;20208;-67
2021/10/01 02:02:37;;;;;;;1.80;0.70;;;17.70;77.00;;;;;;10414483;28;20221;-68
2021/10/01 02:08:03;;;;;;;1.03;0.60;;;17.70;77.00;;;;;;10447303;28;20197;-68
2021/10/01 02:13:25;;;;;;;1.27;0.60;;;17.70;77.00;;;;;;10476466;22;20787;-66
2021/10/01 02:18:50;;;;;;;1.33;0.50;;;17.70;77.00;;;;;;10465589;28;20197;-67
2021/10/01 02:24:14;;;;;;;1.07;0.50;;;17.70;77.60;;;;;;10434288;28;20782;-67
2021/10/01 02:29:41;;;;;;;0.53;0.43;;;17.70;77.00;;;;;;10434349;28;20277;-67
2021/10/01 02:35:06;;;;;;;0.90;0.60;;;17.70;77.10;;;;;;10453653;28;20221;-66
2021/10/01 02:40:29;;;;;;;1.50;0.60;;;17.70;77.10;;;;;;10454033;28;20688;-67
2021/10/01 02:45:51;;;;;;;1.13;0.53;;;17.70;77.10;;;;;;10415981;28;20217;-67
2021/10/01 02:51:19;;;;;;;0.60;0.40;;;17.70;77.10;;;;;;10445345;28;20216;-66
2021/10/01 02:56:47;;;;;;;0.87;0.50;;;17.70;77.20;;;;;;10413314;28;20293;-67
2021/10/01 03:02:11;;;;;;;0.50;0.50;;;17.70;77.10;;;;;;10412733;28;20213;-66
2021/10/01 03:07:35;;;;;;;0.70;0.60;;;17.70;77.10;;;;;;10413125;28;20208;-67
2021/10/01 03:13:00;;;;;;;1.33;0.63;;;17.70;77.20;;;;;;10411968;28;20221;-66
2021/10/01 03:18:23;;;;;;;0.93;0.53;;;17.70;77.20;;;;;;10419968;28;20261;-67
2021/10/01 03:23:46;;;;;;;0.50;0.50;;;17.70;77.20;;;;;;10452135;28;20221;-67
2021/10/01 03:29:11;;;;;;;1.13;0.40;;;17.70;77.70;;;;;;10453075;28;20201;-65
2021/10/01 03:34:33;;;;;;;0.37;0.37;;;17.70;77.20;;;;;;10439376;28;20240;-67
2021/10/01 03:39:57;;;;;;;1.37;0.63;;;17.70;77.20;;;;;;10411974;28;20232;-67
2021/10/01 03:45:20;;;;;;;0.33;0.33;;;17.70;77.20;;;;;;10426443;28;20225;-67
2021/10/01 03:50:42;;;;;;;1.37;0.67;;;17.70;77.20;;;;;;10411900;28;20265;-67
2021/10/01 03:56:10;;;;;;;0.70;0.50;;;17.70;77.20;;;;;;10409840;28;20213;-64
2021/10/01 04:01:33;;;;;;;3.20;0.43;;;17.70;77.30;;;;;;10409905;28;20214;-66
2021/10/01 04:06:55;;;;;;;1.07;0.30;;;17.70;77.30;;;;;;10410188;28;20202;-67
2021/10/01 04:12:17;;;;;;;1.17;0.53;;;17.70;77.20;;;;;;10434568;28;20220;-67
2021/10/01 04:17:41;;;;;;;0.70;0.60;;;17.60;77.20;;;;;;10447184;28;20200;-67
2021/10/01 04:23:03;;;;;;;1.93;0.50;;;17.60;77.20;;;;;;10442356;28;20228;-67
2021/10/01 04:28:25;;;;;;;0.90;0.50;;;17.60;77.20;;;;;;10440229;28;20193;-67
2021/10/01 04:33:49;;;;;;;0.47;0.40;;;17.70;77.20;;;;;;10440067;28;20225;-67
2021/10/01 04:39:13;;;;;;;0.60;0.40;;;17.70;77.20;;;;;;10409289;28;20633;-66
2021/10/01 04:44:35;;;;;;;0.83;0.50;;;17.70;77.20;;;;;;10406804;28;20276;-67
2021/10/01 04:49:58;;;;;;;1.50;0.60;;;17.70;77.30;;;;;;10433044;28;20941;-68
2021/10/01 04:55:20;;;;;;;0.60;0.40;;;17.70;77.20;;;;;;10410957;28;20566;-69
2021/10/01 05:00:43;;;;;;;0.37;0.37;;;17.70;77.00;;;;;;10426625;28;20754;-67
2021/10/01 05:06:06;;;;;;;0.77;0.30;;;17.70;77.10;;;;;;10449433;28;20213;-67
2021/10/01 05:11:28;;;;;;;0.57;0.40;;;17.60;77.10;;;;;;10448248;28;20692;-67
2021/10/01 05:16:50;;;;;;;0.57;0.40;;;17.70;77.20;;;;;;10444777;28;20727;-68
2021/10/01 05:22:14;;;;;;;1.13;0.43;;;17.60;77.10;;;;;;10449740;28;20223;-67
2021/10/01 05:27:37;;;;;;;1.70;0.50;;;17.60;77.10;;;;;;10417401;28;20669;-68
2021/10/01 05:33:05;;;;;;;0.97;0.50;;;17.70;77.30;;;;;;10419470;28;20222;-68
2021/10/01 05:38:30;;;;;;;0.97;0.40;;;17.60;77.20;;;;;;10417039;28;20198;-68
2021/10/01 05:43:52;;;;;;;1.23;0.60;;;17.60;77.20;;;;;;10415981;28;20221;-68
2021/10/01 05:49:19;;;;;;;0.87;0.50;;;17.60;77.30;;;;;;10438163;28;20202;-67
2021/10/01 05:54:43;;;;;;;0.73;0.40;;;17.60;77.40;;;;;;10423507;28;20222;-69
2021/10/01 06:00:07;;;;;;;0.80;0.40;;;17.60;77.40;;;;;;10423021;28;20209;-69
2021/10/01 06:05:29;;;;;;;2.30;0.60;;;17.60;77.40;;;;;;10430815;28;20232;-70
2021/10/01 06:10:53;;;;;;;1.73;0.57;;;17.60;77.40;;;;;;10422989;28;20205;-71
2021/10/01 06:16:15;;;;;;;1.57;0.63;;;17.60;77.40;;;;;;10421189;28;20232;-69
2021/10/01 06:21:37;;;;;;;0.97;0.50;;;17.60;77.40;;;;;;10447142;28;20221;-69
2021/10/01 06:27:00;;;;;;;0.83;0.60;;;17.70;77.40;;;;;;10441760;28;20208;-70
2021/10/01 06:32:23;;;;;;;1.30;0.50;;;17.60;77.30;;;;;;10453881;28;20208;-70
2021/10/01 06:37:46;;;;;;;1.70;0.60;;;17.60;77.40;;;;;;10422701;28;20201;-70
2021/10/01 06:43:11;;;;;;;1.80;0.60;;;17.60;77.30;;;;;;10414762;28;20604;-70
2021/10/01 06:48:45;;;;;;;2.67;0.80;;;17.60;77.40;;;;;;10448104;28;20268;-69
2021/10/01 08:19:22;;;;;;;1.10;0.50;;;17.60;77.10;;;;;;10466690;28;20197;-70
2021/10/01 08:24:45;;;;;;;1.97;0.93;;;17.60;77.20;;;;;;10407818;28;20579;-64
2021/10/01 08:30:10;;;;;;;1.37;0.50;;;17.70;78.20;;;;;;10448391;28;20227;-65
2021/10/01 08:35:32;;;;;;;1.47;0.60;;;17.60;77.70;;;;;;10433503;28;20197;-68
2021/10/01 08:40:58;;;;;;;2.07;0.70;;;17.60;77.60;;;;;;10448034;28;20221;-64
2021/10/01 08:46:22;;;;;;;1.67;0.80;;;17.70;77.70;;;;;;10409171;28;20193;-64
2021/10/01 08:51:45;;;;;;;1.10;0.47;;;17.70;77.70;;;;;;10415101;28;20271;-63
2021/10/01 08:57:09;;;;;;;1.10;0.50;;;17.60;77.80;;;;;;10418036;28;20190;-64
2021/10/01 09:02:31;;;;;;;2.13;0.63;;;17.70;77.60;;;;;;10434965;28;20216;-67
2021/10/01 09:07:54;;;;;;;1.17;0.57;;;17.70;77.20;;;;;;10432930;28;20209;-66
2021/10/01 09:13:22;;;;;;;1.37;0.50;;;17.80;77.00;;;;;;10415661;28;20594;-70
2021/10/01 09:18:44;;;;;;;1.57;0.70;;;17.80;76.80;;;;;;10416846;28;20197;-70
2021/10/01 09:24:09;;;;;;;1.53;0.40;;;17.90;76.80;;;;;;10415497;28;20735;-63
2021/10/01 09:29:36;;;;;;;0.97;0.63;;;17.90;76.70;;;;;;10415348;28;20242;-61
2021/10/01 09:34:58;;;;;;;1.30;0.50;;;17.90;77.00;;;;;;10441252;28;20185;-63
2021/10/01 09:40:20;;;;;;;1.00;0.40;;;17.90;77.20;;;;;;10429327;28;20582;-64
2021/10/01 09:46:02;;;;;;;0.87;0.40;;;17.80;77.30;;;;;;10420024;28;20225;-64
2021/10/01 09:51:24;;;;;;;1.47;0.40;;;17.80;77.40;;;;;;10414113;28;20206;-66
2021/10/01 09:56:46;;;;;;;1.60;0.60;;;17.70;77.60;;;;;;10415533;28;20193;-63
2021/10/01 10:02:12;;;;;;;1.57;0.50;;;17.70;77.60;;;;;;10413244;28;20225;-64
2021/10/01 10:07:39;;;;;;;1.07;0.43;;;17.70;77.70;;;;;;10414185;28;20213;-63
2021/10/01 10:13:07;;;;;;;0.40;0.30;;;17.70;77.80;;;;;;10431602;28;20304;-63
2021/10/01 10:18:31;;;;;;;1.33;0.60;;;17.70;78.50;;;;;;10435603;28;20205;-68
2021/10/01 10:23:53;;;;;;;1.47;0.60;;;17.70;77.90;;;;;;10424229;28;20236;-64
2021/10/01 10:29:16;;;;;;;1.03;0.50;;;17.70;78.00;;;;;;10451480;28;20200;-63
2021/10/01 10:34:49;;;;;;;1.77;0.60;;;17.70;78.00;;;;;;10438203;28;20197;-61
2021/10/01 10:40:13;;;;;;;2.57;0.57;;;17.70;78.00;;;;;;10447285;28;20686;-64
2021/10/01 10:45:37;;;;;;;1.27;0.50;;;17.70;78.10;;;;;;10412072;28;20721;-66
2021/10/01 10:51:00;;;;;;;0.73;0.23;;;17.70;78.10;;;;;;10452496;28;20220;-65
2021/10/01 10:56:23;;;;;;;1.67;0.67;;;17.70;78.20;;;;;;10451871;28;20562;-64
2021/10/01 11:01:45;;;;;;;1.10;0.40;;;17.80;77.90;;;;;;10451150;28;20217;-66
2021/10/01 11:07:10;;;;;;;1.80;0.67;;;17.80;77.10;;;;;;10452229;28;20200;-64
2021/10/01 11:12:32;;;;;;;1.50;0.60;;;17.80;76.60;;;;;;10431500;28;20686;-66
2021/10/01 11:18:18;;;;;;;3.23;0.70;;;17.80;76.30;;;;;;10451099;28;20193;-65
2021/10/01 11:23:55;;;;;;;5.07;1.10;;;17.90;75.90;;;;;;10410110;28;20288;-69
2021/10/01 11:29:23;;;;;;;4.70;1.00;;;17.90;76.20;;;;;;10411936;28;20209;-67
2021/10/01 11:34:48;;;;;;;5.00;1.10;;;17.90;75.90;;;;;;10411483;28;20198;-68
2021/10/01 11:40:17;;;;;;;2.67;1.10;;;17.90;76.00;;;;;;10408202;28;20217;-65
2021/10/01 11:45:43;;;;;;;3.60;1.10;;;17.90;76.40;;;;;;10428554;28;20222;-67
2021/10/01 11:51:11;;;;;;;3.73;1.17;;;17.80;76.20;;;;;;10410218;28;20218;-67
2021/10/01 11:56:35;;;;;;;5.57;1.20;;;17.80;76.50;;;;;;10404029;28;20616;-67
2021/10/01 12:01:59;;;;;;;2.93;1.13;;;17.80;76.80;;;;;;10416831;28;20209;-66
2021/10/01 12:07:21;;;;;;;4.00;1.03;;;17.80;77.00;;;;;;10444748;28;20208;-67
2021/10/01 12:13:05;;;;;;;5.03;1.20;;;17.70;76.90;;;;;;10413165;28;20228;-66
2021/10/01 12:18:36;;;;;;;4.10;1.30;;;17.70;76.80;;;;;;10412843;28;20574;-66
2021/10/01 12:24:01;;;;;;;3.77;1.03;;;17.80;77.20;;;;;;10424465;28;20252;-66
2021/10/01 12:29:26;;;;;;;4.87;1.23;;;17.70;77.10;;;;;;10435120;28;20590;-67
2021/10/01 12:34:55;;;;;;;2.80;1.10;;;17.70;77.20;;;;;;10443126;28;20575;-68
2021/10/01 12:40:18;;;;;;;2.80;1.00;;;17.70;77.50;;;;;;10434522;28;20213;-65
2021/10/01 12:45:41;;;;;;;2.90;1.00;;;17.70;77.60;;;;;;10422532;28;20681;-66
2021/10/01 12:51:21;;;;;;;4.27;1.30;;;17.70;77.60;;;;;;10407884;28;20217;-67
2021/10/01 12:56:43;;;;;;;3.03;1.20;;;17.70;77.80;;;;;;10407424;28;20694;-67
2021/10/01 13:02:12;;;;;;;3.00;0.90;;;17.70;78.00;;;;;;10407322;28;20228;-67
2021/10/01 13:07:37;;;;;;;2.70;1.00;;;17.70;77.80;;;;;;10424115;28;20283;-67
2021/10/01 13:13:03;;;;;;;4.78;1.42;;;17.70;77.70;;;;;;10421476;28;20432;-67
2021/10/01 13:18:28;;;;;;;2.37;1.07;;;18.30;75.80;;;;;;10409282;28;20567;-69
2021/10/01 13:23:57;;;;;;;5.93;1.40;;;18.00;76.60;;;;;;10406017;28;20218;-65
2021/10/01 13:29:19;;;;;;;4.50;1.27;;;17.90;77.00;;;;;;10407088;28;20248;-67
2021/10/01 13:34:42;;;;;;;5.50;1.70;;;17.80;77.20;;;;;;10408055;28;20567;-66
2021/10/01 13:40:06;;;;;;;5.60;1.60;;;17.80;77.20;;;;;;10415880;28;20213;-66
2021/10/01 13:45:28;;;;;;;4.07;1.70;;;17.80;77.30;;;;;;10446546;28;20713;-66
2021/10/01 13:50:53;;;;;;;4.67;1.70;;;17.80;77.20;;;;;;10422688;28;20213;-66
2021/10/01 13:56:16;;;;;;;6.90;1.87;;;17.80;77.50;;;;;;10434386;28;20198;-67
2021/10/01 14:01:39;;;;;;;3.50;1.40;;;17.80;76.90;;;;;;10411631;28;20213;-66
2021/10/01 14:07:02;;;;;;;6.47;1.63;;;17.80;76.70;;;;;;10438117;28;20201;-65
2021/10/01 14:12:24;;;;;;;5.67;1.60;;;17.80;76.70;;;;;;10416527;28;20212;-64
2021/10/01 14:17:47;;;;;;;3.70;1.50;;;17.80;76.60;;;;;;10473015;22;20578;-65
2021/10/01 14:23:11;;;;;;;4.20;1.30;;;17.80;76.70;;;;;;10453604;28;20221;-64
2021/10/01 14:28:33;;;;;;;2.03;1.20;;;17.80;76.70;;;;;;10454744;28;20204;-66
2021/10/01 14:33:55;;;;;;;3.73;1.30;;;17.80;76.70;;;;;;10457116;28;20204;-66
2021/10/01 14:39:19;;;;;;;4.47;1.40;;;17.80;76.60;;;;;;10494018;28;20236;-66
2021/10/01 14:44:41;;;;;;;5.17;1.50;;;17.80;76.60;;;;;;10487468;28;20216;-65
2021/10/01 14:50:08;;;;;;;3.33;1.57;;;17.80;76.60;;;;;;10487493;28;20594;-64
2021/10/01 14:55:32;;;;;;;5.70;1.40;;;17.80;76.60;;;;;;10493355;28;20272;-67
2021/10/01 15:00:54;;;;;;;2.30;1.30;;;17.80;77.10;;;;;;10491176;28;20692;-65
2021/10/01 15:06:16;;;;;;;2.97;1.10;;;17.80;76.60;;;;;;10493766;28;20704;-65
2021/10/01 15:11:40;;;;;;;2.13;1.20;;;17.80;76.60;;;;;;10493441;28;20216;-66
2021/10/01 15:17:02;;;;;;;2.40;1.30;;;17.80;76.60;;;;;;10492030;28;20203;-66
2021/10/01 15:22:24;;;;;;;2.33;1.23;;;17.80;76.70;;;;;;10487911;28;20697;-65
2021/10/01 15:27:47;;;;;;;2.93;1.40;;;17.80;76.70;;;;;;10491453;28;20204;-64
2021/10/01 15:33:10;;;;;;;3.20;1.27;;;17.80;76.80;;;;;;10490359;28;20208;-66
2021/10/01 15:38:32;;;;;;;3.33;1.27;;;17.80;76.90;;;;;;10489071;28;20204;-68
2021/10/01 15:43:56;;;;;;;2.73;1.40;;;17.80;76.90;;;;;;10489840;28;20223;-67
2021/10/01 15:49:18;;;;;;;2.07;1.20;;;17.80;77.00;;;;;;10488744;28;20208;-68
2021/10/01 15:54:40;;;;;;;2.30;1.00;;;17.80;77.00;;;;;;10484277;28;20200;-68
2021/10/01 16:00:05;;;;;;;2.73;1.10;;;17.80;77.10;;;;;;10490813;28;20224;-69
2021/10/01 16:05:27;;;;;;;2.90;0.90;;;17.80;77.00;;;;;;10483868;28;20220;-68
2021/10/01 16:10:49;;;;;;;2.73;1.37;;;17.80;77.00;;;;;;10450571;28;20213;-67
2021/10/01 16:16:13;;;;;;;1.53;0.90;;;17.80;77.10;;;;;;10484447;28;20226;-67
2021/10/01 16:21:36;;;;;;;2.33;0.80;;;17.70;77.10;;;;;;10486486;28;20813;-66
2021/10/01 16:26:59;;;;;;;2.47;1.00;;;17.80;77.10;;;;;;10490497;28;20219;-67
2021/10/01 16:32:22;;;;;;;3.33;0.90;;;17.70;77.00;;;;;;10490249;28;20220;-66
2021/10/01 16:37:44;;;;;;;3.17;1.10;;;17.70;77.00;;;;;;10489653;28;20203;-66
2021/10/01 16:43:07;;;;;;;1.97;1.03;;;17.80;77.10;;;;;;10489695;28;20235;-67
2021/10/01 16:48:30;;;;;;;1.97;1.00;;;17.70;76.90;;;;;;10484166;28;20658;-66
2021/10/01 16:53:52;;;;;;;2.30;0.80;;;17.80;77.10;;;;;;10480494;28;20220;-67
2021/10/01 16:59:15;;;;;;;2.50;1.10;;;17.80;77.00;;;;;;10489447;28;20192;-66
2021/10/01 17:04:38;;;;;;;2.20;1.00;;;17.70;77.00;;;;;;10490183;28;20208;-66
2021/10/01 17:10:01;;;;;;;3.20;1.30;;;17.70;76.90;;;;;;10492537;28;20217;-66
2021/10/01 17:15:25;;;;;;;2.30;1.00;;;17.70;77.00;;;;;;10496534;28;20339;-67
2021/10/01 17:20:49;;;;;;;2.10;0.90;;;17.70;76.90;;;;;;10493919;28;20219;-66
2021/10/01 17:26:11;;;;;;;3.43;1.03;;;17.70;77.00;;;;;;10493796;28;20219;-67
2021/10/01 17:31:33;;;;;;;0.93;0.70;;;17.70;77.00;;;;;;10493407;28;20223;-68
2021/10/01 17:36:57;;;;;;;2.00;0.90;;;17.80;77.00;;;;;;10495213;28;20193;-66
2021/10/01 17:42:19;;;;;;;2.53;1.07;;;17.70;76.90;;;;;;10496004;28;20220;-67
2021/10/01 17:47:41;;;;;;;2.00;0.90;;;17.70;77.00;;;;;;10491552;28;20846;-66
2021/10/01 17:53:07;;;;;;;1.10;0.70;;;17.70;76.90;;;;;;10483036;28;21552;-66
2021/10/01 17:58:30;;;;;;;1.30;0.70;;;17.70;76.90;;;;;;10475768;28;20297;-67
2021/10/01 18:03:52;;;;;;;2.83;0.87;;;17.80;77.00;;;;;;10488065;28;20263;-67
2021/10/01 18:09:15;;;;;;;1.13;0.70;;;17.80;77.00;;;;;;10489535;28;20205;-66
2021/10/01 18:14:37;;;;;;;1.87;0.83;;;17.70;76.90;;;;;;10490524;28;20231;-67
2021/10/01 18:20:00;;;;;;;1.87;0.87;;;17.70;76.90;;;;;;10489570;28;20227;-66
2021/10/01 18:25:23;;;;;;;1.07;0.67;;;17.70;77.00;;;;;;10489062;28;20220;-67
2021/10/01 18:30:46;;;;;;;1.03;0.77;;;17.70;77.00;;;;;;10487716;28;20227;-66
2021/10/01 18:36:08;;;;;;;1.40;0.90;;;17.70;77.00;;;;;;10488648;28;20798;-66
2021/10/01 18:41:32;;;;;;;2.53;0.83;;;17.70;77.00;;;;;;10487795;28;20713;-67
2021/10/01 18:46:54;;;;;;;1.30;0.83;;;17.80;77.70;;;;;;10479746;28;20220;-67
2021/10/01 18:52:17;;;;;;;0.90;0.73;;;17.70;77.10;;;;;;10479940;28;20224;-67
2021/10/01 18:57:40;;;;;;;2.17;0.90;;;17.70;77.10;;;;;;10487065;28;20658;-67
2021/10/01 19:03:03;;;;;;;2.03;0.80;;;17.70;77.30;;;;;;10473213;28;20224;-66
2021/10/01 19:08:30;;;;;;;1.53;0.87;;;17.80;77.30;;;;;;10488132;28;20300;-67
2021/10/01 19:13:53;;;;;;;0.77;0.50;;;17.80;77.40;;;;;;10486996;28;20291;-67
2021/10/01 19:19:16;;;;;;;2.80;0.70;;;17.80;77.30;;;;;;10485861;28;20192;-67
2021/10/01 19:24:41;;;;;;;1.40;0.90;;;17.80;77.40;;;;;;10477583;28;20239;-67
2021/10/01 19:30:24;;;;;;;3.17;0.80;;;17.80;77.40;;;;;;10444533;28;20319;-66
2021/10/01 19:35:46;;;;;;;1.47;0.80;;;17.80;77.30;;;;;;10449873;28;20191;-67
2021/10/01 19:41:09;;;;;;;2.73;0.80;;;17.80;77.30;;;;;;10491333;28;20735;-67
2021/10/01 19:46:32;;;;;;;1.47;0.70;;;17.80;77.40;;;;;;10491120;28;20228;-67
2021/10/01 19:51:55;;;;;;;1.60;0.70;;;17.80;77.40;;;;;;10485957;28;20574;-67
2021/10/01 19:57:17;;;;;;;2.60;0.70;;;17.80;77.40;;;;;;10491215;28;20196;-67
2021/10/01 20:02:47;;;;;;;3.50;0.80;;;17.70;77.30;;;;;;10480830;28;20220;-66
2021/10/01 20:08:09;;;;;;;1.43;0.90;;;17.70;77.30;;;;;;10483653;28;20195;-67
2021/10/01 20:19:03;;;;;;;1.03;0.70;;;17.80;77.30;;;;;;10385655;28;20698;-67
2021/10/01 20:47:12;;;;;;;2.17;1.00;;;17.80;77.40;;;;;;10417588;28;20241;-67
2021/10/01 20:52:36;;;;;;;1.63;0.97;;;17.70;77.30;;;;;;10416142;28;20209;-67
2021/10/01 20:58:04;;;;;;;1.60;0.67;;;17.70;77.30;;;;;;10419593;28;20663;-68
2021/10/01 21:03:40;;;;;;;2.53;0.77;;;17.70;77.40;;;;;;10416021;28;20218;-69
2021/10/01 21:37:50;;;;;;;0.70;0.60;;;17.80;77.40;;;;;;10455603;28;20177;-65
2021/10/01 21:43:30;;;;;;;1.60;0.93;;;17.70;77.40;;;;;;10455710;28;20724;-66
2021/10/01 21:48:53;;;;;;;1.30;0.47;;;17.70;77.40;;;;;;10454755;28;20722;-65
2021/10/01 21:54:18;;;;;;;1.43;0.57;;;17.70;77.40;;;;;;10435633;28;20214;-66
2021/10/01 21:59:43;;;;;;;0.67;0.67;;;17.70;77.50;;;;;;10477904;22;20232;-69
2021/10/01 22:11:10;;;;;;;1.23;0.73;;;17.70;77.50;;;;;;10410977;28;20213;-69
2021/10/01 22:22:21;;;;;;;1.60;0.60;;;17.70;77.60;;;;;;10367818;28;20201;-69
2021/10/01 22:27:46;;;;;;;1.30;0.57;;;17.70;78.10;;;;;;10438815;28;20231;-69
2021/10/01 22:33:11;;;;;;;0.70;0.60;;;17.70;77.50;;;;;;10430617;28;20731;-69
2021/10/01 22:38:34;;;;;;;0.93;0.60;;;17.70;77.50;;;;;;10445177;28;20198;-69
2021/10/01 22:43:56;;;;;;;1.10;0.70;;;17.70;78.10;;;;;;10413706;28;20224;-69
2021/10/01 22:49:21;;;;;;;1.13;0.60;;;17.70;77.50;;;;;;10446287;28;20205;-68
2021/10/01 22:54:43;;;;;;;1.20;0.70;;;17.70;77.50;;;;;;10429388;28;20218;-71
2021/10/01 23:00:07;;;;;;;0.87;0.57;;;17.70;77.40;;;;;;10445849;28;20201;-69
2021/10/01 23:05:31;;;;;;;3.33;0.70;;;17.70;77.50;;;;;;10453169;28;20778;-69
2021/10/01 23:11:01;;;;;;;1.00;0.70;;;17.70;77.40;;;;;;10462764;28;20205;-69
